Time;durP1;ratioP1;P1;durP2;ratioP2;P2;SDS_P1;SDS_P2;PMS_P1;PMS_P2;Temp;Humidity;BMP_temperature;BMP_pressure;BME280_temperature;BME280_humidity;BME280_pressure;Samples;Min_cycle;Max_cycle;Signal;HPM_P1;HPM_P2
2022/05/19 00:00:36;;;;;;;37.57;10.87;;;12.50;99.90;;;;;;5043838;28;20589;-90
2022/05/19 00:03:02;;;;;;;41.73;9.60;;;12.40;99.90;;;;;;5027821;28;20268;-87
2022/05/19 00:05:28;;;;;;;30.57;9.53;;;12.10;99.90;;;;;;5044185;28;20253;-87
2022/05/19 00:07:54;;;;;;;37.80;10.97;;;12.00;99.90;;;;;;5027637;28;20237;-87
2022/05/19 00:10:20;;;;;;;19.43;10.83;;;12.00;99.90;;;;;;5027523;28;20881;-87
2022/05/19 00:12:46;;;;;;;12.30;10.47;;;12.10;99.90;;;;;;5043677;28;20221;-87
2022/05/19 00:15:12;;;;;;;22.13;9.83;;;12.20;99.90;;;;;;5027218;28;20214;-87
2022/05/19 00:17:39;;;;;;;24.40;10.70;;;12.10;99.90;;;;;;5027375;28;20205;-88
2022/05/19 00:20:05;;;;;;;27.53;11.07;;;12.10;99.90;;;;;;5044455;28;20216;-87
2022/05/19 00:22:31;;;;;;;13.70;8.97;;;12.00;99.90;;;;;;5026990;28;20210;-87
2022/05/19 00:24:56;;;;;;;12.07;9.03;;;11.80;99.90;;;;;;5026979;28;20228;-86
2022/05/19 00:27:22;;;;;;;11.43;9.13;;;11.80;99.90;;;;;;5027272;28;20221;-87
2022/05/19 00:29:48;;;;;;;9.27;8.03;;;11.70;99.90;;;;;;5026697;28;20260;-86
2022/05/19 00:32:14;;;;;;;27.53;8.43;;;11.70;99.90;;;;;;5026820;28;20639;-88
2022/05/19 00:34:39;;;;;;;16.00;8.73;;;11.60;99.90;;;;;;5044010;28;20210;-87
2022/05/19 00:37:05;;;;;;;32.20;8.13;;;11.60;99.90;;;;;;5026814;28;20226;-87
2022/05/19 00:39:34;;;;;;;42.80;8.77;;;11.70;99.90;;;;;;5026352;28;20249;-86
2022/05/19 00:44:44;;;;;;;19.83;8.60;;;11.60;99.90;;;;;;5043446;28;20182;-87
2022/05/19 00:47:19;;;;;;;13.70;8.27;;;11.60;99.90;;;;;;5043702;28;20857;-88
2022/05/19 00:49:47;;;;;;;10.93;8.70;;;11.60;99.90;;;;;;5043704;28;20325;-87
2022/05/19 00:52:24;;;;;;;12.20;8.67;;;11.60;99.90;;;;;;5043161;28;20240;-87
2022/05/19 00:55:27;;;;;;;16.17;7.73;;;11.60;99.90;;;;;;5044082;28;20218;-87
2022/05/19 00:57:58;;;;;;;10.63;8.10;;;11.60;99.90;;;;;;5030490;28;20214;-86
2022/05/19 01:00:25;;;;;;;25.67;9.90;;;11.70;99.90;;;;;;5043618;28;20221;-86
2022/05/19 01:02:55;;;;;;;11.63;9.87;;;11.80;99.90;;;;;;5026231;28;20177;-86
2022/05/19 01:05:28;;;;;;;57.97;9.67;;;11.80;99.90;;;;;;5043711;28;20316;-87
2022/05/19 01:08:08;;;;;;;14.60;9.63;;;11.80;99.90;;;;;;5043844;28;20238;-89
2022/05/19 01:10:35;;;;;;;19.17;9.97;;;11.70;99.90;;;;;;5043933;28;20229;-89
2022/05/19 01:13:01;;;;;;;29.57;8.97;;;11.80;99.90;;;;;;5027041;28;20222;-87
2022/05/19 01:15:28;;;;;;;13.50;9.00;;;11.90;99.90;;;;;;5042782;28;20257;-88
2022/05/19 01:17:54;;;;;;;13.30;8.60;;;12.00;99.90;;;;;;5044063;28;20221;-88
2022/05/19 01:20:25;;;;;;;13.07;9.27;;;12.10;99.90;;;;;;5044011;28;20269;-88
2022/05/19 01:23:18;;;;;;;11.60;8.57;;;12.00;99.90;;;;;;5042311;28;20217;-89
2022/05/19 01:26:07;;;;;;;11.63;8.23;;;12.00;99.90;;;;;;5043263;28;20543;-87
2022/05/19 01:28:33;;;;;;;11.87;9.13;;;12.30;99.90;;;;;;5044466;28;20260;-86
2022/05/19 01:30:59;;;;;;;10.70;8.93;;;12.40;99.90;;;;;;5043047;28;20690;-88
2022/05/19 01:33:25;;;;;;;16.00;10.47;;;12.50;99.90;;;;;;5010612;28;20259;-87
2022/05/19 01:35:51;;;;;;;18.73;10.10;;;12.60;99.90;;;;;;5042574;28;20646;-90
2022/05/19 01:38:22;;;;;;;16.60;10.17;;;12.70;99.90;;;;;;5026925;28;20205;-88
2022/05/19 01:40:54;;;;;;;16.93;10.30;;;12.70;99.90;;;;;;5059890;28;20445;-87
2022/05/19 01:43:27;;;;;;;16.43;10.50;;;12.70;99.90;;;;;;5058835;28;20289;-88
2022/05/19 01:45:58;;;;;;;11.93;9.77;;;12.70;99.90;;;;;;5047586;28;20949;-87
2022/05/19 01:48:28;;;;;;;16.83;10.67;;;12.70;99.90;;;;;;5046767;28;20237;-87
2022/05/19 01:51:02;;;;;;;17.93;10.27;;;12.80;99.90;;;;;;5061689;28;20240;-86
2022/05/19 01:53:47;;;;;;;11.27;9.90;;;12.80;99.90;;;;;;5063183;28;20197;-87
2022/05/19 01:56:28;;;;;;;15.43;10.13;;;12.90;99.90;;;;;;5047365;28;20217;-89
2022/05/19 01:59:06;;;;;;;19.63;10.37;;;12.90;99.90;;;;;;5046375;28;20674;-87
2022/05/19 02:01:32;;;;;;;13.00;9.77;;;13.00;99.90;;;;;;5063037;28;20213;-88
2022/05/19 02:04:08;;;;;;;21.97;11.63;;;13.20;99.90;;;;;;5046235;28;20673;-88
2022/05/19 02:06:34;;;;;;;15.40;9.67;;;13.30;99.90;;;;;;5046484;28;20240;-86
2022/05/19 02:09:12;;;;;;;20.20;12.40;;;13.40;99.90;;;;;;5047754;28;20236;-87
2022/05/19 02:11:42;;;;;;;19.57;12.80;;;13.50;99.90;;;;;;5063090;28;20232;-88
2022/05/19 02:14:12;;;;;;;16.17;11.13;;;13.50;99.90;;;;;;5047056;28;20213;-89
2022/05/19 02:16:39;;;;;;;16.97;12.47;;;13.50;99.90;;;;;;5046086;28;20214;-85
2022/05/19 02:19:06;;;;;;;27.10;12.53;;;13.50;99.90;;;;;;5046356;28;20213;-85
2022/05/19 02:21:32;;;;;;;15.50;10.87;;;13.50;99.90;;;;;;5046158;28;20283;-85
2022/05/19 02:24:09;;;;;;;20.33;13.40;;;13.50;99.90;;;;;;5013557;28;20222;-85
2022/05/19 02:26:39;;;;;;;19.97;12.77;;;13.60;99.90;;;;;;5047164;28;20227;-85
2022/05/19 02:29:09;;;;;;;19.17;12.50;;;13.60;99.90;;;;;;5047239;28;20229;-86
2022/05/19 02:31:35;;;;;;;17.83;13.60;;;13.60;99.90;;;;;;5045851;28;20226;-87
2022/05/19 02:34:01;;;;;;;20.97;14.27;;;13.60;99.90;;;;;;5013462;28;20225;-86
2022/05/19 02:36:27;;;;;;;22.23;12.53;;;13.60;99.90;;;;;;5028930;28;20575;-87
2022/05/19 02:38:53;;;;;;;24.57;13.50;;;13.60;99.90;;;;;;5046103;28;20276;-87
2022/05/19 02:41:19;;;;;;;22.33;14.53;;;13.50;99.90;;;;;;5029675;28;20182;-86
2022/05/19 02:43:45;;;;;;;19.70;13.67;;;13.60;99.90;;;;;;5028839;28;20214;-87
2022/05/19 02:46:11;;;;;;;16.00;12.10;;;13.60;99.90;;;;;;5029318;28;20224;-85
2022/05/19 02:48:37;;;;;;;17.57;12.17;;;13.60;99.90;;;;;;5045674;28;20856;-86
2022/05/19 02:51:04;;;;;;;17.57;12.27;;;13.60;99.90;;;;;;5046956;28;20218;-87
2022/05/19 02:53:29;;;;;;;21.07;13.30;;;13.60;99.90;;;;;;5047134;28;20178;-87
2022/05/19 02:55:55;;;;;;;18.80;11.97;;;13.60;99.90;;;;;;5027485;28;20224;-87
2022/05/19 02:58:21;;;;;;;22.53;13.10;;;13.70;99.90;;;;;;5029241;28;20723;-89
2022/05/19 03:00:48;;;;;;;17.97;11.57;;;13.70;99.90;;;;;;5045132;28;20210;-86
2022/05/19 03:03:14;;;;;;;17.90;11.87;;;13.80;99.90;;;;;;5045350;28;20781;-86
2022/05/19 03:05:40;;;;;;;27.97;14.07;;;13.80;99.90;;;;;;5045543;28;20252;-89
2022/05/19 03:08:08;;;;;;;20.83;14.27;;;13.90;99.90;;;;;;5046066;28;20259;-87
2022/05/19 03:10:36;;;;;;;21.47;13.97;;;13.90;99.90;;;;;;5046259;28;20336;-89
2022/05/19 03:13:02;;;;;;;23.33;15.77;;;14.00;99.90;;;;;;5044456;28;20226;-89
2022/05/19 03:15:29;;;;;;;22.73;14.60;;;14.10;99.90;;;;;;5046441;28;20217;-86
2022/05/19 03:17:56;;;;;;;22.97;16.10;;;14.20;99.90;;;;;;5028938;28;20240;-87
2022/05/19 03:20:22;;;;;;;28.40;16.73;;;14.40;99.90;;;;;;5046369;28;20186;-88
2022/05/19 03:22:48;;;;;;;29.27;14.60;;;14.50;99.90;;;;;;5045404;28;20252;-87
2022/05/19 03:25:14;;;;;;;21.60;13.97;;;14.50;99.90;;;;;;5028738;28;20250;-86
2022/05/19 03:27:39;;;;;;;19.97;13.90;;;14.50;99.90;;;;;;5045360;28;20244;-86
2022/05/19 03:30:09;;;;;;;19.43;13.63;;;14.50;99.90;;;;;;5046396;28;20213;-87
2022/05/19 03:32:35;;;;;;;22.23;14.73;;;14.60;99.90;;;;;;5044780;28;20178;-86
2022/05/19 03:35:01;;;;;;;22.70;14.47;;;14.60;99.90;;;;;;5044629;28;20228;-88
2022/05/19 03:37:26;;;;;;;23.17;13.33;;;14.60;99.90;;;;;;5028060;28;20682;-86
2022/05/19 03:39:52;;;;;;;17.97;13.87;;;14.60;99.90;;;;;;5044908;28;20225;-86
2022/05/19 03:42:18;;;;;;;20.43;14.00;;;14.70;99.90;;;;;;5028417;28;20698;-86
2022/05/19 03:44:44;;;;;;;19.60;14.87;;;14.70;99.90;;;;;;5027027;28;20182;-85
2022/05/19 03:47:09;;;;;;;18.83;13.33;;;14.70;99.90;;;;;;5045052;28;20186;-86
2022/05/19 03:49:35;;;;;;;21.63;13.03;;;14.80;99.90;;;;;;5044315;28;20232;-85
2022/05/19 04:58:22;;;;;;;15.93;11.17;;;16.00;99.90;;;;;;519310;26;20517;-83
2022/05/19 05:00:50;;;;;;;20.80;14.10;;;16.10;99.90;;;;;;5068136;28;20228;-84
2022/05/19 05:03:16;;;;;;;24.03;14.70;;;16.20;99.90;;;;;;5055569;28;20228;-86
2022/05/19 05:05:41;;;;;;;23.23;13.30;;;16.30;99.90;;;;;;5074482;28;20172;-85
2022/05/19 05:08:07;;;;;;;20.13;14.53;;;16.40;99.90;;;;;;5053445;28;20299;-85
2022/05/19 05:10:33;;;;;;;23.80;15.70;;;16.40;99.90;;;;;;5064299;28;20303;-86
2022/05/19 05:13:07;;;;;;;30.43;14.30;;;16.50;99.90;;;;;;5067847;28;20221;-85
2022/05/19 05:15:34;;;;;;;20.67;14.57;;;16.50;99.90;;;;;;5070549;28;20681;-86
2022/05/19 05:18:00;;;;;;;20.93;14.43;;;16.60;99.90;;;;;;5063140;28;20216;-86
2022/05/19 05:20:26;;;;;;;25.40;14.83;;;16.70;99.90;;;;;;5067325;28;20189;-88
2022/05/19 05:22:51;;;;;;;25.30;15.57;;;16.70;99.90;;;;;;5061765;28;20220;-89
2022/05/19 05:25:17;;;;;;;23.53;14.97;;;16.80;99.90;;;;;;5075762;28;20220;-90
2022/05/19 05:27:43;;;;;;;23.03;15.63;;;16.90;99.90;;;;;;5078688;28;20216;-90
2022/05/19 05:30:11;;;;;;;25.27;16.50;;;17.00;99.90;;;;;;5084903;28;20236;-90
2022/05/19 05:32:37;;;;;;;20.33;13.90;;;17.00;99.90;;;;;;5064129;28;20188;-89
2022/05/19 05:35:04;;;;;;;21.07;12.17;;;17.00;99.90;;;;;;5077178;28;20181;-90
2022/05/19 05:37:30;;;;;;;19.17;8.30;;;17.00;99.90;;;;;;5074704;28;20217;-88
2022/05/19 05:39:56;;;;;;;28.20;9.83;;;17.00;99.90;;;;;;5077096;28;20227;-88
2022/05/19 05:42:24;;;;;;;32.90;10.00;;;17.00;99.90;;;;;;5057700;28;20232;-88
2022/05/19 05:44:50;;;;;;;18.17;9.30;;;17.00;99.90;;;;;;5076860;28;20552;-88
2022/05/19 05:47:17;;;;;;;15.43;9.27;;;17.00;99.90;;;;;;5076178;28;20204;-88
2022/05/19 05:49:42;;;;;;;21.20;11.13;;;17.00;99.90;;;;;;5061606;28;20221;-88
2022/05/19 05:52:08;;;;;;;18.10;11.63;;;17.10;99.90;;;;;;5082002;28;20216;-88
2022/05/19 05:54:34;;;;;;;22.90;10.40;;;17.10;99.90;;;;;;5065590;28;20257;-89
2022/05/19 05:57:02;;;;;;;16.73;10.60;;;17.10;99.90;;;;;;5063180;28;20243;-87
2022/05/19 05:59:28;;;;;;;16.63;9.47;;;17.10;99.90;;;;;;5059168;28;20266;-87
2022/05/19 06:01:53;;;;;;;16.63;9.10;;;17.10;99.90;;;;;;5056793;28;20216;-86
2022/05/19 06:04:19;;;;;;;23.60;10.07;;;17.10;99.90;;;;;;5072113;28;20221;-88
2022/05/19 06:06:46;;;;;;;19.83;9.33;;;17.10;99.90;;;;;;5075012;28;20687;-89
2022/05/19 06:09:13;;;;;;;24.50;10.07;;;17.20;99.90;;;;;;5060805;28;20229;-86
2022/05/19 06:11:39;;;;;;;18.80;9.23;;;17.30;99.90;;;;;;5065425;28;20197;-87
2022/05/19 06:14:05;;;;;;;13.10;8.37;;;17.30;99.90;;;;;;5057063;28;20607;-89
2022/05/19 06:16:31;;;;;;;16.80;7.97;;;17.40;99.90;;;;;;5077857;28;20229;-90
2022/05/19 06:18:56;;;;;;;16.80;8.27;;;17.30;99.90;;;;;;5061228;28;20262;-89
2022/05/19 06:21:22;;;;;;;22.60;9.47;;;17.30;99.90;;;;;;5072564;28;20277;-90
2022/05/19 06:23:48;;;;;;;19.57;9.30;;;17.40;99.90;;;;;;5061130;28;20201;-92
2022/05/19 06:26:14;;;;;;;14.77;10.53;;;17.40;99.90;;;;;;5079416;28;20192;-92
2022/05/19 06:28:45;;;;;;;20.80;9.97;;;17.40;99.90;;;;;;5061279;28;20339;-90
2022/05/19 06:31:13;;;;;;;14.80;9.07;;;17.40;99.90;;;;;;5057180;28;20213;-90
2022/05/19 06:33:39;;;;;;;11.00;7.47;;;17.40;99.90;;;;;;5076298;28;20225;-90
2022/05/19 06:36:05;;;;;;;15.27;8.90;;;17.20;99.90;;;;;;5059951;28;20225;-91
2022/05/19 06:38:34;;;;;;;15.53;7.50;;;17.20;99.90;;;;;;5077076;28;20197;-89
2022/05/19 06:43:47;;;;;;;17.13;7.30;;;17.20;99.90;;;;;;5076181;28;20216;-88
2022/05/19 06:46:13;;;;;;;13.60;8.60;;;17.30;99.90;;;;;;5061225;28;20240;-91
2022/05/19 06:48:39;;;;;;;24.87;9.40;;;17.30;99.90;;;;;;5058198;28;20713;-91
2022/05/19 06:51:05;;;;;;;13.70;8.23;;;17.30;99.90;;;;;;5060194;28;20264;-91
2022/05/19 06:53:31;;;;;;;19.97;8.63;;;17.40;99.90;;;;;;5062117;28;20216;-94
2022/05/19 06:55:57;;;;;;;18.17;8.90;;;17.40;99.90;;;;;;5056782;28;20220;-91
2022/05/19 06:58:23;;;;;;;15.53;10.10;;;17.40;99.90;;;;;;5060633;28;20621;-92
2022/05/19 07:00:48;;;;;;;19.83;9.50;;;17.50;99.90;;;;;;5050914;28;20233;-89
2022/05/19 07:03:15;;;;;;;14.67;9.23;;;17.50;99.90;;;;;;5061518;28;20464;-93
2022/05/19 07:05:41;;;;;;;20.50;9.57;;;17.60;99.90;;;;;;5062090;28;20253;-93
2022/05/19 07:08:07;;;;;;;11.67;9.60;;;17.60;99.90;;;;;;5077844;28;20637;-90
2022/05/19 07:10:33;;;;;;;14.83;9.63;;;17.60;99.90;;;;;;5059891;28;20490;-89
2022/05/19 07:12:59;;;;;;;24.10;10.17;;;17.70;99.90;;;;;;5073966;28;20228;-90
2022/05/19 07:15:27;;;;;;;20.70;10.53;;;17.80;99.90;;;;;;5056044;28;20307;-90
2022/05/19 07:17:53;;;;;;;24.67;12.17;;;17.90;99.90;;;;;;5076449;28;20697;-93
2022/05/19 07:23:04;;;;;;;15.03;10.43;;;18.00;99.90;;;;;;5074997;28;20208;-90
2022/05/19 07:25:30;;;;;;;17.40;10.80;;;18.10;99.90;;;;;;5081567;28;20224;-91
2022/05/19 07:27:56;;;;;;;18.77;11.30;;;18.20;99.90;;;;;;5058193;28;20704;-90
2022/05/19 07:30:22;;;;;;;21.23;13.10;;;18.10;99.90;;;;;;5065915;28;20757;-90
2022/05/19 07:32:48;;;;;;;21.23;12.43;;;18.00;99.90;;;;;;5075805;28;20180;-92
2022/05/19 07:35:16;;;;;;;17.53;12.77;;;18.00;99.90;;;;;;5078678;28;20628;-91
2022/05/19 07:37:42;;;;;;;14.93;12.50;;;18.00;99.90;;;;;;5071994;28;20836;-94
2022/05/19 07:40:09;;;;;;;21.20;14.87;;;18.10;99.90;;;;;;5072047;28;20229;-89
2022/05/19 07:42:36;;;;;;;21.23;12.00;;;18.10;99.90;;;;;;5065635;28;20213;-91
2022/05/19 07:45:02;;;;;;;21.00;12.97;;;18.10;99.90;;;;;;5082221;28;20701;-91
2022/05/19 07:47:31;;;;;;;22.47;12.67;;;18.00;99.90;;;;;;5057825;28;20190;-91
2022/05/19 07:49:57;;;;;;;24.83;12.37;;;17.90;99.90;;;;;;5074147;28;20232;-91
2022/05/19 07:52:23;;;;;;;16.13;10.13;;;17.80;99.90;;;;;;5058928;28;20220;-90
2022/05/19 07:54:49;;;;;;;21.97;11.40;;;17.60;99.90;;;;;;5059457;28;20224;-90
2022/05/19 07:57:15;;;;;;;23.10;11.07;;;17.60;99.90;;;;;;5057596;28;20220;-89
2022/05/19 07:59:41;;;;;;;24.20;12.30;;;17.60;99.90;;;;;;5058307;28;20703;-92
2022/05/19 08:02:07;;;;;;;21.93;11.00;;;17.60;99.90;;;;;;5060854;28;20185;-90
2022/05/19 08:04:34;;;;;;;17.03;9.90;;;17.60;99.90;;;;;;5072473;28;20254;-92
2022/05/19 08:07:01;;;;;;;12.70;9.77;;;17.50;99.90;;;;;;5074630;28;20212;-89
2022/05/19 08:15:34;;;;;;;14.43;9.13;;;17.60;99.90;;;;;;5078081;28;20307;-90
2022/05/19 08:17:52;;;;;;;17.57;11.00;;;17.70;99.90;;;;;;5075367;28;20184;-92
2022/05/19 08:20:18;;;;;;;15.40;9.33;;;17.60;99.90;;;;;;5060525;28;20440;-89
2022/05/19 08:22:44;;;;;;;13.07;9.70;;;17.70;99.90;;;;;;5074428;28;20298;-88
2022/05/19 08:25:10;;;;;;;18.13;10.50;;;17.80;99.90;;;;;;5081134;28;20262;-92
2022/05/19 08:27:36;;;;;;;14.47;10.47;;;17.90;99.90;;;;;;5072719;28;20219;-90
2022/05/19 08:30:03;;;;;;;17.33;10.27;;;17.90;99.90;;;;;;5072394;28;20232;-89
2022/05/19 08:32:29;;;;;;;20.53;11.80;;;18.00;99.90;;;;;;5078544;28;20185;-91
2022/05/19 08:34:54;;;;;;;16.27;10.73;;;18.20;99.90;;;;;;5048657;28;20217;-90
2022/05/19 08:37:20;;;;;;;17.40;10.53;;;18.30;99.90;;;;;;5060887;28;20217;-91
2022/05/19 08:39:46;;;;;;;16.70;11.77;;;18.50;99.90;;;;;;5073389;28;20312;-91
2022/05/19 08:42:14;;;;;;;15.37;10.20;;;18.40;99.90;;;;;;5074876;28;20226;-90
2022/05/19 08:44:51;;;;;;;15.87;11.60;;;18.50;99.90;;;;;;5080880;28;20710;-90
2022/05/19 08:47:20;;;;;;;19.50;11.30;;;18.60;99.90;;;;;;5083588;28;20181;-91
2022/05/19 08:50:01;;;;;;;19.43;12.50;;;18.60;99.90;;;;;;5073890;28;20319;-89
2022/05/19 08:52:39;;;;;;;19.60;11.63;;;18.90;99.90;;;;;;5073942;28;20212;-88
2022/05/19 08:55:06;;;;;;;19.00;9.90;;;19.20;99.90;;;;;;5071889;28;20503;-90
2022/05/19 08:57:36;;;;;;;16.83;11.07;;;19.20;99.90;;;;;;5059171;28;20272;-90
2022/05/19 09:00:11;;;;;;;23.47;11.73;;;19.20;99.90;;;;;;5075340;28;20224;-92
2022/05/19 09:02:39;;;;;;;19.17;11.23;;;19.20;99.90;;;;;;5072573;28;20665;-90
2022/05/19 09:05:42;;;;;;;15.17;11.93;;;19.30;99.90;;;;;;5070957;28;20318;-89
2022/05/19 09:08:45;;;;;;;20.17;11.57;;;19.60;99.90;;;;;;5070655;28;20244;-90
2022/05/19 09:11:21;;;;;;;16.37;10.67;;;19.50;99.90;;;;;;5079525;28;20302;-87
2022/05/19 09:14:00;;;;;;;13.13;10.50;;;19.50;99.90;;;;;;5072171;28;20754;-91
2022/05/19 09:16:29;;;;;;;16.23;10.67;;;19.50;99.90;;;;;;5072355;28;20625;-87
2022/05/19 09:19:13;;;;;;;18.00;10.60;;;19.40;99.90;;;;;;5071603;28;20225;-89
2022/05/19 09:21:42;;;;;;;14.50;10.37;;;19.60;99.90;;;;;;5070734;28;20684;-87
2022/05/19 09:24:10;;;;;;;14.13;9.37;;;19.60;99.90;;;;;;5092802;28;20219;-88
2022/05/19 09:26:45;;;;;;;18.73;10.50;;;19.30;99.90;;;;;;5068375;28;20206;-88
2022/05/19 09:29:15;;;;;;;17.27;11.57;;;19.60;99.90;;;;;;5073600;28;20332;-89
2022/05/19 09:31:49;;;;;;;14.17;11.53;;;19.60;99.90;;;;;;5070119;28;20254;-90
2022/05/19 09:34:15;;;;;;;16.00;10.77;;;19.90;99.90;;;;;;5070460;28;20514;-88
2022/05/19 09:37:03;;;;;;;19.70;11.10;;;19.80;99.90;;;;;;5079901;28;20602;-91
2022/05/19 09:39:35;;;;;;;19.27;9.63;;;19.80;99.90;;;;;;5078946;28;20274;-88
2022/05/19 09:42:10;;;;;;;12.03;10.60;;;19.80;99.90;;;;;;5070291;28;20248;-94
2022/05/19 09:44:39;;;;;;;17.13;10.53;;;19.80;99.90;;;;;;5075090;28;20183;-88
2022/05/19 09:47:16;;;;;;;16.57;12.00;;;19.50;99.90;;;;;;5072323;28;20269;-92
2022/05/19 09:49:51;;;;;;;17.43;11.67;;;19.70;99.90;;;;;;5080383;28;20299;-94
2022/05/19 09:52:23;;;;;;;20.23;13.20;;;19.80;99.90;;;;;;5071578;28;20219;-92
2022/05/19 09:55:02;;;;;;;18.20;11.60;;;20.20;99.90;;;;;;5080864;28;20235;-90
2022/05/19 09:57:43;;;;;;;14.17;9.27;;;20.10;99.90;;;;;;5072588;28;20221;-91
2022/05/19 10:00:24;;;;;;;18.73;11.37;;;19.80;99.90;;;;;;5069315;28;20547;-89
2022/05/19 10:02:55;;;;;;;18.77;12.03;;;19.80;99.90;;;;;;5087854;28;20739;-90
2022/05/19 10:05:31;;;;;;;18.87;11.57;;;19.90;99.90;;;;;;5057883;28;20670;-90
2022/05/19 10:08:05;;;;;;;17.50;10.67;;;19.90;99.90;;;;;;5076778;28;20237;-90
2022/05/19 10:10:33;;;;;;;13.73;8.87;;;19.90;99.90;;;;;;5073814;28;20407;-90
2022/05/19 10:13:12;;;;;;;26.17;13.00;;;19.80;99.90;;;;;;5076130;28;20229;-89
2022/05/19 10:15:51;;;;;;;20.93;12.37;;;20.00;99.90;;;;;;5081023;28;20213;-89
2022/05/19 10:18:23;;;;;;;16.73;12.77;;;20.40;99.90;;;;;;5082553;28;20232;-88
2022/05/19 10:21:03;;;;;;;15.00;11.77;;;21.00;99.90;;;;;;5076485;28;20184;-87
2022/05/19 10:23:49;;;;;;;16.90;11.10;;;21.50;99.90;;;;;;5072114;28;20183;-88
2022/05/19 10:26:38;;;;;;;16.37;12.47;;;21.70;99.90;;;;;;5076237;28;20296;-89
2022/05/19 10:32:59;;;;;;;17.20;11.97;;;22.10;99.90;;;;;;5073557;28;20657;-89
2022/05/19 10:36:08;;;;;;;14.30;10.13;;;22.10;99.90;;;;;;4998723;28;20397;-89
2022/05/19 10:38:45;;;;;;;13.70;10.70;;;21.90;99.90;;;;;;5064507;28;20378;-89
2022/05/19 10:41:35;;;;;;;11.37;9.53;;;21.60;99.90;;;;;;5078096;28;20231;-89
2022/05/19 10:44:37;;;;;;;14.73;9.97;;;21.70;99.90;;;;;;5078666;28;20665;-88
2022/05/19 10:47:09;;;;;;;15.00;11.70;;;21.90;99.90;;;;;;5075891;28;20220;-89
2022/05/19 10:50:20;;;;;;;16.30;12.40;;;22.40;99.90;;;;;;5074243;28;20255;-89
2022/05/19 10:52:54;;;;;;;14.37;11.57;;;23.00;99.90;;;;;;5072445;28;20556;-88
2022/05/19 10:55:44;;;;;;;13.02;11.73;;;23.20;99.90;;;;;;5082879;28;20261;-89
2022/05/19 10:58:18;;;;;;;14.18;12.20;;;23.30;99.90;;;;;;5082756;28;20523;-87
2022/05/19 11:01:22;;;;;;;11.82;10.57;;;23.50;99.90;;;;;;5072952;28;20236;-89
2022/05/19 11:04:14;;;;;;;16.67;12.25;;;23.10;99.90;;;;;;5074420;28;20228;-89
2022/05/19 11:07:02;;;;;;;13.05;11.30;;;23.00;99.90;;;;;;5045640;28;20240;-89
2022/05/19 11:09:34;;;;;;;13.52;11.07;;;23.20;99.90;;;;;;5080395;28;20229;-88
2022/05/19 11:12:32;;;;;;;15.15;11.05;;;23.10;99.90;;;;;;5073579;28;20255;-88
2022/05/19 11:15:11;;;;;;;16.30;12.13;;;23.30;99.90;;;;;;5071504;28;20286;-87
2022/05/19 11:17:49;;;;;;;13.55;11.27;;;23.80;99.90;;;;;;5073211;28;20189;-90
2022/05/19 11:20:20;;;;;;;13.32;10.95;;;23.80;99.90;;;;;;5074044;28;20241;-88
2022/05/19 11:22:50;;;;;;;13.60;11.80;;;23.80;99.90;;;;;;5072960;28;20217;-88
2022/05/19 11:28:37;;;;;;;12.75;11.07;;;23.30;99.90;;;;;;5074212;28;20232;-89
2022/05/19 11:31:14;;;;;;;12.82;11.15;;;23.30;99.90;;;;;;5076289;28;20699;-89
2022/05/19 11:33:44;;;;;;;14.73;11.38;;;23.10;99.90;;;;;;5081312;28;20629;-87
2022/05/19 11:36:45;;;;;;;14.30;12.70;;;22.90;99.90;;;;;;5074585;28;20665;-87
2022/05/19 11:39:28;;;;;;;16.02;12.52;;;23.10;99.90;;;;;;5047291;28;20721;-88
2022/05/19 11:41:58;;;;;;;15.65;11.95;;;23.30;99.90;;;;;;5071631;28;20204;-90
2022/05/19 11:44:28;;;;;;;14.07;12.57;;;23.30;99.90;;;;;;5071328;28;20181;-91
2022/05/19 11:47:15;;;;;;;16.58;13.77;;;23.10;99.90;;;;;;5073584;28;20228;-90
2022/05/19 11:55:45;;;;;;;17.83;14.98;;;22.60;99.90;;;;;;5073515;28;20224;-90
2022/05/19 11:58:27;;;;;;;18.27;14.10;;;22.30;99.90;;;;;;5080087;28;20228;-89
2022/05/19 12:01:30;;;;;;;18.60;12.60;;;22.10;99.90;;;;;;5079941;28;20228;-89
2022/05/19 12:04:15;;;;;;;22.63;14.13;;;21.80;99.90;;;;;;5066856;28;20568;-90
2022/05/19 12:06:53;;;;;;;18.63;13.57;;;21.50;99.90;;;;;;5073456;28;20672;-90
2022/05/19 12:09:24;;;;;;;17.83;12.77;;;21.50;99.90;;;;;;5076582;28;20224;-91
2022/05/19 12:11:58;;;;;;;19.27;14.03;;;21.60;99.90;;;;;;5075002;28;20591;-90
2022/05/19 12:14:33;;;;;;;19.67;12.80;;;21.40;99.90;;;;;;5092805;28;20200;-93
2022/05/19 12:16:59;;;;;;;16.73;12.83;;;21.30;99.90;;;;;;5071989;28;20281;-90
2022/05/19 12:19:52;;;;;;;15.80;12.30;;;21.30;99.90;;;;;;5072091;28;20221;-89
2022/05/19 12:22:36;;;;;;;15.83;11.67;;;21.20;99.90;;;;;;5066076;28;20216;-88
2022/05/19 12:25:08;;;;;;;19.60;12.20;;;21.00;99.90;;;;;;5076305;28;20309;-92
2022/05/19 12:27:37;;;;;;;26.53;12.80;;;20.90;99.90;;;;;;5073957;28;20308;-87
2022/05/19 12:33:27;;;;;;;13.20;8.63;;;20.70;99.90;;;;;;5055565;28;20633;-92
2022/05/19 12:36:17;;;;;;;14.57;9.70;;;20.30;99.90;;;;;;5076300;28;20202;-91
2022/05/19 12:38:45;;;;;;;16.33;10.23;;;20.10;99.90;;;;;;5076196;28;20217;-91
2022/05/19 12:41:37;;;;;;;13.80;9.80;;;20.20;99.90;;;;;;5073080;28;20215;-92
2022/05/19 12:44:30;;;;;;;14.03;11.20;;;20.10;99.90;;;;;;5074612;28;20221;-91
2022/05/19 12:47:03;;;;;;;17.10;12.60;;;20.30;99.90;;;;;;5076086;28;20221;-89
2022/05/19 12:49:31;;;;;;;19.87;13.00;;;20.40;99.90;;;;;;5078025;28;20224;-91
2022/05/19 12:52:09;;;;;;;17.93;12.13;;;20.40;99.90;;;;;;5057454;28;20213;-91
2022/05/19 12:54:36;;;;;;;17.10;11.57;;;20.40;99.90;;;;;;5070758;28;20216;-93
2022/05/19 12:57:10;;;;;;;14.17;10.00;;;20.40;99.90;;;;;;5070634;28;20213;-92
2022/05/19 12:59:46;;;;;;;15.40;9.50;;;20.30;99.90;;;;;;5088636;28;20323;-89
2022/05/19 13:02:41;;;;;;;11.40;8.90;;;20.30;99.90;;;;;;5082275;28;20188;-93
2022/05/19 13:05:21;;;;;;;11.47;8.07;;;20.20;99.90;;;;;;5071237;28;20224;-95
2022/05/19 13:07:57;;;;;;;9.47;7.67;;;20.20;99.90;;;;;;5084568;28;20212;-90
2022/05/19 13:10:33;;;;;;;13.80;7.67;;;20.10;99.90;;;;;;5075888;28;20743;-90
2022/05/19 13:13:07;;;;;;;9.80;6.67;;;19.90;99.90;;;;;;5071420;28;20217;-90
2022/05/19 13:15:45;;;;;;;10.43;7.90;;;19.80;99.90;;;;;;5072861;28;20702;-93
2022/05/19 13:18:12;;;;;;;9.07;7.33;;;19.80;99.90;;;;;;5071511;28;20243;-93
2022/05/19 13:20:40;;;;;;;12.70;8.50;;;19.80;99.90;;;;;;5074774;28;20191;-93
2022/05/19 13:23:18;;;;;;;11.00;8.37;;;19.80;99.90;;;;;;5055529;28;20185;-91
2022/05/19 13:25:47;;;;;;;10.33;7.93;;;19.70;99.90;;;;;;5072183;28;20588;-91
2022/05/19 13:31:05;;;;;;;9.80;7.13;;;19.80;99.90;;;;;;5072993;28;20205;-93
2022/05/19 13:33:37;;;;;;;13.83;9.30;;;19.80;99.90;;;;;;5072593;28;20701;-92
2022/05/19 13:36:06;;;;;;;11.63;7.53;;;19.70;99.90;;;;;;5080293;28;20217;-90
2022/05/19 13:38:32;;;;;;;11.73;8.20;;;19.50;99.90;;;;;;5072192;28;20189;-92
2022/05/19 13:40:59;;;;;;;13.43;9.47;;;19.30;99.90;;;;;;5072934;28;20205;-90
2022/05/19 13:43:45;;;;;;;10.77;8.67;;;19.20;99.90;;;;;;5076158;28;20209;-91
2022/05/19 13:46:20;;;;;;;14.00;9.67;;;19.10;99.90;;;;;;5087028;28;20259;-89
2022/05/19 13:48:54;;;;;;;9.67;8.30;;;19.10;99.90;;;;;;5101289;28;20232;-90
2022/05/19 13:51:31;;;;;;;12.73;9.20;;;19.10;99.90;;;;;;5074925;28;20383;-89
2022/05/19 13:54:03;;;;;;;11.97;7.93;;;19.00;99.90;;;;;;5084215;28;20212;-91
2022/05/19 13:56:40;;;;;;;10.13;8.27;;;18.90;99.90;;;;;;5076181;28;20779;-91
2022/05/19 13:59:09;;;;;;;10.47;7.43;;;18.80;99.90;;;;;;5102372;28;20244;-92
2022/05/19 14:01:41;;;;;;;11.00;8.00;;;18.70;99.90;;;;;;5079774;28;20225;-90
2022/05/19 14:04:09;;;;;;;9.60;6.90;;;18.70;99.90;;;;;;5074652;28;20241;-89
2022/05/19 14:06:37;;;;;;;12.50;7.40;;;18.60;99.90;;;;;;5076007;28;20217;-94
2022/05/19 14:09:05;;;;;;;9.27;7.67;;;18.60;99.90;;;;;;5085044;28;20228;-90
2022/05/19 14:11:31;;;;;;;11.97;7.63;;;18.60;99.90;;;;;;5080283;28;20243;-89
2022/05/19 14:14:00;;;;;;;11.10;8.53;;;18.50;99.90;;;;;;5059138;28;20228;-88
2022/05/19 14:16:29;;;;;;;10.10;5.87;;;18.50;99.90;;;;;;5078077;28;20217;-94
2022/05/19 14:19:29;;;;;;;10.07;7.70;;;18.50;99.90;;;;;;5075315;28;20220;-90
2022/05/19 14:21:55;;;;;;;9.20;6.60;;;18.50;99.90;;;;;;5076698;28;20261;-89
2022/05/19 14:24:21;;;;;;;9.50;7.10;;;18.60;99.90;;;;;;5074736;28;20304;-92
2022/05/19 14:26:51;;;;;;;10.00;7.47;;;18.60;99.90;;;;;;5076553;28;20661;-89
2022/05/19 14:29:26;;;;;;;9.83;7.57;;;18.60;99.90;;;;;;5077464;28;20684;-88
2022/05/19 14:32:02;;;;;;;9.67;7.13;;;18.70;99.90;;;;;;5071985;28;20368;-91